This is the latest recevied weather packets stored in our database for station/object S53BL-10. If no packets are shown the sender has not sent any weather packets the latest 10 day(s).
| Time | Temp. | Humidity | Pressure | Rain* | Wind** | Luminosity | Snow |
|---|---|---|---|---|---|---|---|
| 1777648996 | 22.78° C | 23% | 1021.3 hPa | - | - | - | - |
| 1777648095 | 22.78° C | 23% | 1021.5 hPa | - | - | - | - |
| 1777647194 | 22.78° C | 22% | 1021.5 hPa | - | - | - | - |
| 1777646294 | 22.22° C | 22% | 1021.6 hPa | - | - | - | - |
| 1777645393 | 22.78° C | 23% | 1021.7 hPa | - | - | - | - |
| 1777644492 | 23.33° C | 22% | 1021.8 hPa | - | - | - | - |
| 1777643591 | 24.44° C | 21% | 1022 hPa | - | - | - | - |
| 1777642690 | 23.89° C | 21% | 1022.1 hPa | - | - | - | - |
| 1777641790 | 23.89° C | 22% | 1022.3 hPa | - | - | - | - |
| 1777640889 | 23.89° C | 22% | 1022.5 hPa | - | - | - | - |
| 1777639988 | 22.78° C | 22% | 1022.6 hPa | - | - | - | - |
| 1777639087 | 23.33° C | 21% | 1022.9 hPa | - | - | - | - |
| 1777638186 | 22.78° C | 21% | 1022.9 hPa | - | - | - | - |
| 1777637286 | 23.33° C | 21% | 1023.1 hPa | - | - | - | - |
| 1777636385 | 22.78° C | 21% | 1023.3 hPa | - | - | - | - |
| 1777635484 | 22.22° C | 23% | 1023.4 hPa | - | - | - | - |
| 1777634583 | 21.11° C | 25% | 1023.6 hPa | - | - | - | - |
| 1777633683 | 21.67° C | 22% | 1023.8 hPa | - | - | - | - |
| 1777632782 | 21.67° C | 24% | 1023.9 hPa | - | - | - | - |
| 1777631881 | 21.67° C | 24% | 1024 hPa | - | - | - | - |
| 1777630980 | 21.67° C | 24% | 1024.3 hPa | - | - | - | - |
| 1777630079 | 20.56° C | 24% | 1024.3 hPa | - | - | - | - |
| 1777629179 | 22.22° C | 22% | 1024.6 hPa | - | - | - | - |
| 1777628278 | 20.56° C | 24% | 1024.7 hPa | - | - | - | - |
| 1777627377 | 20.56° C | 25% | 1024.8 hPa | - | - | - | - |
* Rain since midnight (hover to see other rain measurements)
** Current wind speed in m/s (hover to see current wind gust speed)